This is the latest recevied weather packets stored in our database for station/object K1TTC. If no packets are shown the sender has not sent any weather packets the latest 10 day(s).
| Time | Temp. | Humidity | Pressure | Rain* | Wind** | Luminosity | Snow |
|---|---|---|---|---|---|---|---|
| 1777690732 | 7.78° C | 54% | 1012.8 hPa | 0 mm | - | 0 W/m² | - |
| 1777690133 | 8.33° C | 53% | 1012.8 hPa | 0 mm | - | 0 W/m² | - |
| 1777689534 | 8.33° C | 51% | 1012.8 hPa | 0 mm | - | 0 W/m² | - |
| 1777688932 | 8.33° C | 52% | 1012.8 hPa | 0 mm | - | 0 W/m² | - |
| 1777688329 | 8.89° C | 51% | 1012.8 hPa | 0 mm | - | 0 W/m² | - |
| 1777673322 | 16.67° C | 25% | 1010.5 hPa | 0 mm | - | 77 W/m² | - |
| 1777672118 | 16.67° C | 25% | 1010.5 hPa | 0 mm | - | 125 W/m² | - |
| 1777671517 | 16.67° C | 25% | 1010.4 hPa | 0 mm | - | 54 W/m² | - |
| 1777669714 | 16.67° C | 25% | 1010.2 hPa | 0 mm | - | 44 W/m² | - |
| 1777669114 | 16.67° C | 26% | 1010.1 hPa | 0 mm | - | 107 W/m² | - |
| 1777667910 | 16.67° C | 25% | 1010 hPa | 0 mm | - | 274 W/m² | - |
| 1777666702 | 16.67° C | 26% | 1009.9 hPa | 0 mm | - | 63 W/m² | - |
| 1777666104 | 17.22° C | 25% | 1009.9 hPa | 0 mm | - | 60 W/m² | - |
| 1777665501 | 17.22° C | 24% | 1009.8 hPa | 0 mm | - | 649 W/m² | - |
| 1777664299 | 17.22° C | 26% | 1010 hPa | 0 mm | - | 701 W/m² | - |
| 1777663697 | 17.22° C | 26% | 1010.1 hPa | 0 mm | - | 754 W/m² | - |
| 1777663095 | 17.22° C | 27% | 1010.1 hPa | 0 mm | - | 798 W/m² | - |
| 1777660691 | 16.11° C | 30% | 1010.1 hPa | 0 mm | - | 939 W/m² | - |
| 1777660094 | 16.11° C | 30% | 1010.3 hPa | 0 mm | - | 1023 W/m² | - |
| 1777659489 | 16.67° C | 32% | 1010.2 hPa | 0 mm | - | 914 W/m² | - |
| 1777658889 | 16.11° C | 31% | 1010.4 hPa | 0 mm | - | 918 W/m² | - |
| 1777657091 | 15.56° C | 33% | 1010.4 hPa | 0 mm | - | 227 W/m² | - |
| 1777655285 | 15° C | 35% | 1010.5 hPa | 0 mm | - | 937 W/m² | - |
| 1777654685 | 14.44° C | 38% | 1010.6 hPa | 0 mm | - | 944 W/m² | - |
| 1777653486 | 14.44° C | 37% | 1010.8 hPa | 0 mm | - | 946 W/m² | - |
* Rain latest hour (hover to see other rain measurements)
** Current wind speed in m/s (hover to see current wind gust speed)